Time;durP1;ratioP1;P1;durP2;ratioP2;P2;SDS_P1;SDS_P2;PMS_P1;PMS_P2;Temp;Humidity;BMP_temperature;BMP_pressure;BME280_temperature;BME280_humidity;BME280_pressure;Samples;Min_cycle;Max_cycle;Signal;HPM_P1;HPM_P2
2022/06/26 00:02:09;;;;;;;8.82;6.82;;;;;;;;;;5086872;28;20048;-62
2022/06/26 00:04:35;;;;;;;15.15;7.10;;;;;;;;;;5093127;28;20046;-63
2022/06/26 00:07:03;;;;;;;10.57;6.90;;;;;;;;;;5101960;28;20557;-62
2022/06/26 00:09:29;;;;;;;8.50;6.80;;;;;;;;;;5088998;28;20063;-62
2022/06/26 00:11:56;;;;;;;9.68;6.55;;;;;;;;;;5084589;28;20032;-62
2022/06/26 00:14:22;;;;;;;15.40;8.18;;;;;;;;;;5087011;28;20505;-62
2022/06/26 00:16:48;;;;;;;10.93;6.43;;;;;;;;;;5096480;28;20032;-62
2022/06/26 00:19:15;;;;;;;12.63;6.82;;;;;;;;;;5085288;28;20040;-62
2022/06/26 00:21:41;;;;;;;9.18;6.75;;;;;;;;;;5085428;28;20075;-62
2022/06/26 00:24:07;;;;;;;9.07;6.82;;;;;;;;;;5087345;28;20490;-63
2022/06/26 00:26:33;;;;;;;9.60;6.32;;;;;;;;;;5092473;28;20032;-62
2022/06/26 00:28:59;;;;;;;14.52;7.00;;;;;;;;;;5091145;28;20039;-62
2022/06/26 00:31:26;;;;;;;14.05;9.23;;;;;;;;;;5086767;28;20043;-62
2022/06/26 00:33:52;;;;;;;19.40;11.65;;;;;;;;;;5088456;28;20075;-62
2022/06/26 00:36:18;;;;;;;17.38;10.85;;;;;;;;;;5078916;28;20403;-63
2022/06/26 00:38:44;;;;;;;15.10;11.32;;;;;;;;;;5085509;28;20063;-62
2022/06/26 00:41:10;;;;;;;12.18;9.20;;;;;;;;;;5093755;28;20083;-62
2022/06/26 00:43:36;;;;;;;14.35;9.50;;;;;;;;;;5101010;28;20036;-62
2022/06/26 00:46:04;;;;;;;13.25;8.80;;;;;;;;;;5090693;28;20425;-62
2022/06/26 00:48:30;;;;;;;21.45;9.23;;;;;;;;;;5083532;28;20405;-62
2022/06/26 00:50:57;;;;;;;9.98;7.88;;;;;;;;;;5089976;28;20035;-62
2022/06/26 00:53:23;;;;;;;13.32;8.38;;;;;;;;;;5095076;28;20048;-62
2022/06/26 00:55:49;;;;;;;11.38;6.80;;;;;;;;;;5089266;28;20039;-62
2022/06/26 00:58:15;;;;;;;9.02;6.70;;;;;;;;;;5089661;28;20409;-62
2022/06/26 01:00:42;;;;;;;12.43;6.60;;;;;;;;;;5089546;28;20059;-63
2022/06/26 01:03:08;;;;;;;7.60;6.57;;;;;;;;;;5089027;28;20048;-62
2022/06/26 01:05:34;;;;;;;6.85;5.35;;;;;;;;;;5089499;28;20036;-62
2022/06/26 01:08:01;;;;;;;10.07;4.68;;;;;;;;;;5083308;28;20301;-62
2022/06/26 01:10:27;;;;;;;7.97;4.38;;;;;;;;;;5090293;28;20059;-62
2022/06/26 01:12:54;;;;;;;11.80;4.25;;;;;;;;;;5097914;28;20498;-61
2022/06/26 01:15:20;;;;;;;10.40;4.88;;;;;;;;;;5091892;28;20043;-62
2022/06/26 01:17:46;;;;;;;8.63;4.32;;;;;;;;;;5086798;28;20506;-62
2022/06/26 01:20:12;;;;;;;8.18;3.97;;;;;;;;;;5088478;28;20432;-62
2022/06/26 01:22:39;;;;;;;6.68;2.95;;;;;;;;;;5094365;28;20463;-62
2022/06/26 01:25:05;;;;;;;5.50;3.28;;;;;;;;;;5090492;28;20042;-62
2022/06/26 01:27:39;;;;;;;7.80;2.72;;;;;;;;;;5090354;28;20043;-62
2022/06/26 01:30:05;;;;;;;7.53;2.92;;;;;;;;;;5086077;28;20501;-62
2022/06/26 01:32:31;;;;;;;5.10;2.83;;;;;;;;;;5075491;28;20047;-62
2022/06/26 01:34:57;;;;;;;7.20;3.67;;;;;;;;;;5084497;28;20071;-62
2022/06/26 01:37:24;;;;;;;5.90;3.92;;;;;;;;;;5090829;28;20407;-62
2022/06/26 01:39:51;;;;;;;7.07;3.28;;;;;;;;;;5089364;28;20079;-62
2022/06/26 01:42:17;;;;;;;4.28;3.17;;;;;;;;;;5081631;28;20048;-62
2022/06/26 01:44:43;;;;;;;5.55;3.10;;;;;;;;;;5080145;28;20516;-62
2022/06/26 01:47:09;;;;;;;4.78;3.40;;;;;;;;;;5097645;28;20031;-62
2022/06/26 01:49:35;;;;;;;5.05;3.53;;;;;;;;;;5093235;28;20032;-62
2022/06/26 01:52:01;;;;;;;9.98;3.90;;;;;;;;;;5084849;28;20047;-62
2022/06/26 01:54:28;;;;;;;7.50;3.72;;;;;;;;;;5096395;28;20039;-62
2022/06/26 01:56:54;;;;;;;4.80;3.30;;;;;;;;;;5097302;28;20084;-62
2022/06/26 01:59:20;;;;;;;14.13;3.95;;;;;;;;;;5092676;28;20320;-62
2022/06/26 02:01:46;;;;;;;7.22;3.47;;;;;;;;;;5082958;28;20075;-62
2022/06/26 02:04:16;;;;;;;5.80;3.45;;;;;;;;;;5089337;28;20047;-62
2022/06/26 02:06:43;;;;;;;6.15;3.42;;;;;;;;;;5096429;28;20050;-62
2022/06/26 02:13:36;;;;;;;8.00;3.20;;;;;;;;;;5100206;28;20053;-63
2022/06/26 02:14:39;;;;;;;6.97;4.00;;;;;;;;;;5083119;28;20183;-62
2022/06/26 02:17:05;;;;;;;7.43;3.47;;;;;;;;;;5086461;28;20217;-62
2022/06/26 02:19:31;;;;;;;5.13;2.67;;;;;;;;;;5094758;28;20288;-62
2022/06/26 02:21:58;;;;;;;7.18;2.70;;;;;;;;;;5085640;28;20043;-61
2022/06/26 02:24:24;;;;;;;5.05;2.47;;;;;;;;;;5092369;28;20066;-62
2022/06/26 02:26:50;;;;;;;4.88;2.50;;;;;;;;;;5087418;28;20071;-62
2022/06/26 02:29:16;;;;;;;4.43;2.22;;;;;;;;;;5090441;28;20040;-62
2022/06/26 02:31:42;;;;;;;7.15;3.03;;;;;;;;;;5090778;28;20495;-62
2022/06/26 02:34:08;;;;;;;5.65;2.95;;;;;;;;;;5090202;28;20124;-61
2022/06/26 02:36:34;;;;;;;3.88;2.15;;;;;;;;;;5089319;28;20071;-61
2022/06/26 02:39:00;;;;;;;5.07;2.72;;;;;;;;;;5090253;28;20047;-61
2022/06/26 02:41:27;;;;;;;5.93;2.78;;;;;;;;;;5091592;28;20048;-62
2022/06/26 02:43:53;;;;;;;9.07;2.55;;;;;;;;;;5089807;28;20134;-62
2022/06/26 02:46:20;;;;;;;6.13;2.65;;;;;;;;;;5088314;28;20499;-63
2022/06/26 02:48:47;;;;;;;4.82;2.53;;;;;;;;;;5100066;28;20043;-62
2022/06/26 02:51:13;;;;;;;4.10;1.95;;;;;;;;;;5096296;28;20048;-62
2022/06/26 02:53:39;;;;;;;5.97;3.22;;;;;;;;;;5087387;28;20043;-62
2022/06/26 02:56:05;;;;;;;6.07;2.63;;;;;;;;;;5092203;28;20040;-63
2022/06/26 02:58:31;;;;;;;3.97;2.25;;;;;;;;;;5088780;28;20036;-63
2022/06/26 03:00:57;;;;;;;3.75;2.40;;;;;;;;;;5086112;28;20052;-63
2022/06/26 03:03:23;;;;;;;4.95;3.08;;;;;;;;;;5082070;28;20059;-63
2022/06/26 03:05:50;;;;;;;8.30;2.80;;;;;;;;;;5098700;28;20028;-63
2022/06/26 03:08:16;;;;;;;3.13;2.28;;;;;;;;;;5084573;28;20035;-63
2022/06/26 03:10:42;;;;;;;5.43;2.30;;;;;;;;;;5082516;28;20040;-63
2022/06/26 03:13:08;;;;;;;3.83;2.28;;;;;;;;;;5070274;28;20401;-63
2022/06/26 03:15:34;;;;;;;3.95;2.75;;;;;;;;;;5085264;28;20036;-63
2022/06/26 03:18:02;;;;;;;4.65;2.80;;;;;;;;;;5081950;28;20076;-63
2022/06/26 03:20:29;;;;;;;5.03;2.83;;;;;;;;;;5086639;28;20115;-62
2022/06/26 03:22:55;;;;;;;5.90;2.90;;;;;;;;;;5091686;28;20036;-63
2022/06/26 03:25:21;;;;;;;3.67;2.65;;;;;;;;;;5084475;28;20043;-63
2022/06/26 03:27:47;;;;;;;5.75;3.00;;;;;;;;;;5087960;28;20073;-63
2022/06/26 03:30:14;;;;;;;2.65;1.80;;;;;;;;;;5095497;28;20124;-63
2022/06/26 03:32:40;;;;;;;3.47;2.35;;;;;;;;;;5093360;28;20043;-63
2022/06/26 03:35:07;;;;;;;3.67;2.10;;;;;;;;;;5084300;28;20110;-63
2022/06/26 03:37:33;;;;;;;2.78;2.05;;;;;;;;;;5090000;28;20035;-62
2022/06/26 03:39:59;;;;;;;2.90;2.05;;;;;;;;;;5083152;28;20044;-63
2022/06/26 03:42:25;;;;;;;3.55;1.73;;;;;;;;;;5091077;28;20036;-63
2022/06/26 03:44:51;;;;;;;2.65;1.83;;;;;;;;;;5085937;28;20032;-63
2022/06/26 03:47:17;;;;;;;3.58;1.88;;;;;;;;;;5085015;28;20036;-63
2022/06/26 03:49:44;;;;;;;5.10;2.50;;;;;;;;;;5083534;28;20652;-63
2022/06/26 03:52:10;;;;;;;3.25;2.20;;;;;;;;;;5075638;28;20037;-63
2022/06/26 03:54:36;;;;;;;2.75;1.90;;;;;;;;;;5075000;28;20028;-63
2022/06/26 03:57:02;;;;;;;3.85;2.38;;;;;;;;;;5092294;28;20040;-63
2022/06/26 03:59:28;;;;;;;6.70;3.13;;;;;;;;;;5084285;28;20036;-63
2022/06/26 04:01:55;;;;;;;6.43;3.10;;;;;;;;;;5094703;28;20536;-63
2022/06/26 04:04:21;;;;;;;3.10;2.42;;;;;;;;;;5089689;28;20048;-63
2022/06/26 04:06:47;;;;;;;4.00;2.55;;;;;;;;;;5100426;28;20067;-63
2022/06/26 04:09:13;;;;;;;4.70;2.80;;;;;;;;;;5086012;28;20044;-63
2022/06/26 04:11:40;;;;;;;5.32;3.78;;;;;;;;;;5087668;28;20071;-63
2022/06/26 04:14:06;;;;;;;6.00;4.00;;;;;;;;;;5087330;28;20058;-63
2022/06/26 04:16:33;;;;;;;7.53;3.72;;;;;;;;;;5078257;28;20081;-63
2022/06/26 04:19:00;;;;;;;7.65;4.57;;;;;;;;;;5082036;28;20450;-63
2022/06/26 04:21:26;;;;;;;6.78;5.72;;;;;;;;;;5093749;28;20040;-63
2022/06/26 04:23:52;;;;;;;7.72;5.32;;;;;;;;;;5085837;28;20055;-63
2022/06/26 04:26:18;;;;;;;9.70;5.68;;;;;;;;;;5074458;28;20158;-63
2022/06/26 04:28:45;;;;;;;7.47;5.22;;;;;;;;;;5085961;28;20063;-63
2022/06/26 04:31:11;;;;;;;9.65;6.55;;;;;;;;;;5092959;28;20040;-63
2022/06/26 04:33:37;;;;;;;8.05;6.68;;;;;;;;;;5106552;28;20418;-63
2022/06/26 04:36:03;;;;;;;8.20;6.05;;;;;;;;;;5084863;28;20051;-63
2022/06/26 04:38:29;;;;;;;7.68;6.45;;;;;;;;;;5096493;28;20040;-63
2022/06/26 04:40:55;;;;;;;8.77;5.97;;;;;;;;;;5091776;28;20055;-63
2022/06/26 04:43:21;;;;;;;9.63;6.88;;;;;;;;;;5089933;28;20395;-63
2022/06/26 04:45:47;;;;;;;8.43;7.40;;;;;;;;;;5086029;28;20042;-63
2022/06/26 04:48:13;;;;;;;9.88;7.88;;;;;;;;;;5099262;28;20527;-63
2022/06/26 04:50:40;;;;;;;9.70;7.75;;;;;;;;;;5078661;28;20039;-63
2022/06/26 04:53:06;;;;;;;10.77;7.55;;;;;;;;;;5093136;28;20083;-63
2022/06/26 04:55:32;;;;;;;12.43;8.32;;;;;;;;;;5078758;28;20043;-63
2022/06/26 04:57:58;;;;;;;10.93;7.72;;;;;;;;;;5089290;28;20082;-63
2022/06/26 05:00:24;;;;;;;10.70;8.35;;;;;;;;;;5084157;28;20506;-63
2022/06/26 05:02:51;;;;;;;12.00;8.30;;;;;;;;;;5100523;28;20047;-63
2022/06/26 05:05:17;;;;;;;12.38;9.07;;;;;;;;;;5101605;28;20370;-63
2022/06/26 05:07:43;;;;;;;12.48;9.75;;;;;;;;;;5095448;28;20444;-63
2022/06/26 05:10:09;;;;;;;11.65;8.93;;;;;;;;;;5087085;28;20047;-63
2022/06/26 05:12:35;;;;;;;12.85;10.25;;;;;;;;;;5090946;28;20127;-63
2022/06/26 05:15:01;;;;;;;12.88;9.63;;;;;;;;;;5087279;28;20049;-63
2022/06/26 05:17:28;;;;;;;14.35;10.20;;;;;;;;;;5095144;28;20043;-63
2022/06/26 05:19:54;;;;;;;16.17;9.38;;;;;;;;;;5085599;28;20047;-63
2022/06/26 05:22:20;;;;;;;14.52;11.60;;;;;;;;;;5092959;28;20031;-63
2022/06/26 05:24:46;;;;;;;12.60;10.32;;;;;;;;;;5092353;28;20382;-63
2022/06/26 05:27:12;;;;;;;14.90;11.85;;;;;;;;;;5087356;28;20028;-63
2022/06/26 05:29:38;;;;;;;14.63;11.20;;;;;;;;;;5082586;28;20060;-63
2022/06/26 05:32:05;;;;;;;14.80;11.32;;;;;;;;;;5094602;28;20039;-64
2022/06/26 05:34:31;;;;;;;17.23;11.52;;;;;;;;;;5098372;28;20071;-63
2022/06/26 05:36:57;;;;;;;14.55;11.60;;;;;;;;;;5082034;28;20092;-63
2022/06/26 05:39:23;;;;;;;18.13;13.70;;;;;;;;;;5099321;28;20032;-63
2022/06/26 05:41:49;;;;;;;16.83;11.90;;;;;;;;;;5094810;28;20040;-63
2022/06/26 05:44:15;;;;;;;14.13;12.02;;;;;;;;;;5098182;28;20504;-64
2022/06/26 05:46:42;;;;;;;16.80;12.75;;;;;;;;;;5083546;28;20039;-63
2022/06/26 05:49:08;;;;;;;15.25;12.43;;;;;;;;;;5081814;28;20046;-63
2022/06/26 05:51:34;;;;;;;19.65;12.85;;;;;;;;;;5088141;28;20035;-63
2022/06/26 05:54:00;;;;;;;16.90;12.48;;;;;;;;;;5089365;28;20486;-63
2022/06/26 05:56:27;;;;;;;21.98;14.73;;;;;;;;;;5087777;28;20071;-63
2022/06/26 05:58:53;;;;;;;21.98;14.90;;;;;;;;;;5084685;28;20079;-63
2022/06/26 06:01:19;;;;;;;19.67;14.38;;;;;;;;;;5084499;28;20048;-63
2022/06/26 06:03:45;;;;;;;18.08;14.75;;;;;;;;;;5087695;28;20059;-63
2022/06/26 06:06:11;;;;;;;17.08;14.35;;;;;;;;;;5088889;28;20250;-63
2022/06/26 06:08:37;;;;;;;19.52;14.02;;;;;;;;;;5084649;28;20039;-63
2022/06/26 06:11:03;;;;;;;21.08;15.25;;;;;;;;;;5087880;28;20052;-63
2022/06/26 06:13:29;;;;;;;19.20;14.38;;;;;;;;;;5087510;28;20093;-64
2022/06/26 06:15:56;;;;;;;22.70;16.35;;;;;;;;;;5089976;28;20040;-63
2022/06/26 06:18:22;;;;;;;20.00;14.98;;;;;;;;;;5084905;28;20039;-63
2022/06/26 06:20:50;;;;;;;18.77;14.88;;;;;;;;;;5078997;28;20094;-63
2022/06/26 06:23:16;;;;;;;18.17;13.88;;;;;;;;;;5086220;28;20040;-63
2022/06/26 06:25:42;;;;;;;21.60;14.77;;;;;;;;;;5088572;28;20036;-63
2022/06/26 06:28:08;;;;;;;17.77;12.93;;;;;;;;;;5086100;28;20497;-63
2022/06/26 06:30:34;;;;;;;26.45;16.98;;;;;;;;;;5088029;28;20036;-63
2022/06/26 06:33:00;;;;;;;20.42;14.82;;;;;;;;;;5085508;28;20039;-63
2022/06/26 06:35:27;;;;;;;18.02;14.48;;;;;;;;;;5088784;28;20074;-64
2022/06/26 06:37:53;;;;;;;17.63;14.60;;;;;;;;;;5086200;28;20502;-63
2022/06/26 06:40:19;;;;;;;25.92;15.68;;;;;;;;;;5084783;28;20042;-63
2022/06/26 06:42:45;;;;;;;18.70;13.43;;;;;;;;;;5080391;28;20038;-63
2022/06/26 06:45:11;;;;;;;19.02;14.27;;;;;;;;;;5076451;28;20256;-63
2022/06/26 06:47:37;;;;;;;19.50;14.52;;;;;;;;;;5083180;28;20032;-64
2022/06/26 06:50:04;;;;;;;19.27;13.93;;;;;;;;;;5089772;28;20047;-63
2022/06/26 06:52:31;;;;;;;23.48;15.32;;;;;;;;;;5082729;28;20047;-63
2022/06/26 06:54:57;;;;;;;20.40;13.77;;;;;;;;;;5080313;28;20090;-63
2022/06/26 06:57:24;;;;;;;21.00;14.25;;;;;;;;;;5080948;28;20044;-63
2022/06/26 06:59:50;;;;;;;16.77;12.70;;;;;;;;;;5082400;28;20040;-63
2022/06/26 07:02:16;;;;;;;17.02;13.18;;;;;;;;;;5083651;28;20044;-63
2022/06/26 07:04:42;;;;;;;15.07;11.55;;;;;;;;;;5080431;28;20040;-63
2022/06/26 07:07:09;;;;;;;18.70;12.25;;;;;;;;;;5082938;28;20028;-63
2022/06/26 07:09:35;;;;;;;13.30;10.10;;;;;;;;;;5083680;28;20055;-63
2022/06/26 07:12:01;;;;;;;14.45;10.23;;;;;;;;;;5072165;28;20044;-63
2022/06/26 07:14:27;;;;;;;13.95;10.40;;;;;;;;;;5075876;28;20105;-63
2022/06/26 07:16:53;;;;;;;13.43;10.02;;;;;;;;;;5085282;28;20044;-63
2022/06/26 07:19:20;;;;;;;11.73;9.48;;;;;;;;;;5075392;28;20036;-63
2022/06/26 07:21:46;;;;;;;12.20;8.77;;;;;;;;;;5081023;28;20478;-63
2022/06/26 07:24:12;;;;;;;11.35;8.70;;;;;;;;;;5082208;28;20321;-63
2022/06/26 07:26:39;;;;;;;10.32;7.78;;;;;;;;;;5078640;28;20036;-63
2022/06/26 07:29:05;;;;;;;12.98;8.32;;;;;;;;;;5070684;28;20050;-64
2022/06/26 07:31:32;;;;;;;14.50;8.85;;;;;;;;;;5075569;28;20044;-63
2022/06/26 07:34:13;;;;;;;11.35;7.65;;;;;;;;;;5077179;28;20040;-63
2022/06/26 07:36:47;;;;;;;11.80;7.38;;;;;;;;;;5077427;28;20035;-63
2022/06/26 07:39:15;;;;;;;9.40;7.10;;;;;;;;;;5077972;28;20059;-63
2022/06/26 07:41:42;;;;;;;10.07;6.45;;;;;;;;;;5086393;28;20458;-63
2022/06/26 07:44:08;;;;;;;7.38;5.78;;;;;;;;;;5073383;28;20483;-63
2022/06/26 07:46:34;;;;;;;5.40;4.40;;;;;;;;;;5081426;28;20085;-63
2022/06/26 07:49:01;;;;;;;5.40;4.00;;;;;;;;;;5074661;28;20603;-63
2022/06/26 07:51:27;;;;;;;5.43;4.18;;;;;;;;;;5073885;28;20132;-63
2022/06/26 07:53:53;;;;;;;6.45;4.35;;;;;;;;;;5075481;28;20509;-63
2022/06/26 07:56:20;;;;;;;5.88;4.10;;;;;;;;;;5078561;28;20045;-63
2022/06/26 07:58:46;;;;;;;4.70;3.33;;;;;;;;;;5074776;28;20417;-63
2022/06/26 08:01:12;;;;;;;5.45;4.10;;;;;;;;;;5079372;28;20056;-63
2022/06/26 08:03:38;;;;;;;6.60;3.95;;;;;;;;;;5071938;28;20391;-63
2022/06/26 08:06:05;;;;;;;5.93;4.40;;;;;;;;;;5078105;28;20083;-63
2022/06/26 08:08:31;;;;;;;6.65;3.78;;;;;;;;;;5067414;28;20046;-63
2022/06/26 08:10:57;;;;;;;7.70;4.00;;;;;;;;;;5081780;28;20044;-63
2022/06/26 08:13:23;;;;;;;6.00;3.95;;;;;;;;;;5078920;28;20044;-63
2022/06/26 08:15:49;;;;;;;5.75;4.07;;;;;;;;;;5082999;28;20048;-63
2022/06/26 08:18:16;;;;;;;6.22;4.03;;;;;;;;;;5078359;28;20136;-63
2022/06/26 08:20:42;;;;;;;6.75;5.18;;;;;;;;;;5080047;28;20068;-63
2022/06/26 08:23:08;;;;;;;7.80;4.25;;;;;;;;;;5073280;28;20044;-63
2022/06/26 08:25:34;;;;;;;6.10;4.72;;;;;;;;;;5076163;28;20036;-63
2022/06/26 08:28:00;;;;;;;10.45;6.13;;;;;;;;;;5076373;28;20037;-63
2022/06/26 08:30:27;;;;;;;9.82;5.22;;;;;;;;;;5076292;28;20033;-63
2022/06/26 08:32:56;;;;;;;7.00;4.18;;;;;;;;;;5070967;28;20041;-63
2022/06/26 08:35:22;;;;;;;5.38;3.28;;;;;;;;;;5072966;28;20050;-63
2022/06/26 08:37:48;;;;;;;4.40;3.00;;;;;;;;;;5077743;28;20040;-63
2022/06/26 08:40:16;;;;;;;6.00;4.18;;;;;;;;;;5080257;28;20067;-63
2022/06/26 08:42:43;;;;;;;5.00;3.25;;;;;;;;;;5079454;28;20120;-63
2022/06/26 08:45:09;;;;;;;8.05;2.83;;;;;;;;;;5072991;28;20070;-63
2022/06/26 08:47:38;;;;;;;6.28;3.20;;;;;;;;;;5086587;28;20039;-63
2022/06/26 08:50:04;;;;;;;4.57;3.20;;;;;;;;;;5083941;28;20119;-63
2022/06/26 08:52:31;;;;;;;4.20;2.42;;;;;;;;;;5084631;28;20490;-63
2022/06/26 08:54:57;;;;;;;4.90;3.28;;;;;;;;;;5080195;28;20450;-63
2022/06/26 08:57:23;;;;;;;3.33;2.25;;;;;;;;;;5081150;28;20086;-63
2022/06/26 08:59:50;;;;;;;6.40;3.13;;;;;;;;;;5080188;28;20375;-63
2022/06/26 09:02:16;;;;;;;6.82;4.13;;;;;;;;;;5074831;28;20053;-63
2022/06/26 09:04:42;;;;;;;6.88;4.18;;;;;;;;;;5081203;28;20389;-63
2022/06/26 09:07:08;;;;;;;3.90;2.80;;;;;;;;;;5084753;28;20039;-63
2022/06/26 09:09:38;;;;;;;7.20;2.95;;;;;;;;;;5074897;28;20036;-63
2022/06/26 09:12:04;;;;;;;6.43;3.20;;;;;;;;;;5072123;28;20562;-63
2022/06/26 09:14:30;;;;;;;6.53;2.85;;;;;;;;;;5075373;28;20509;-63
2022/06/26 09:16:57;;;;;;;6.22;3.05;;;;;;;;;;5079287;28;20515;-63
2022/06/26 09:19:29;;;;;;;4.57;3.00;;;;;;;;;;5085994;28;20237;-63
2022/06/26 09:22:12;;;;;;;3.38;2.47;;;;;;;;;;5081242;28;20051;-63
2022/06/26 09:24:39;;;;;;;6.15;2.85;;;;;;;;;;5076450;28;20500;-63
2022/06/26 09:27:15;;;;;;;5.50;3.22;;;;;;;;;;5083559;28;20141;-63
2022/06/26 09:29:43;;;;;;;3.63;2.45;;;;;;;;;;5085175;28;20037;-63
2022/06/26 09:32:09;;;;;;;5.20;2.55;;;;;;;;;;5087013;28;20065;-63
2022/06/26 09:34:35;;;;;;;5.40;3.00;;;;;;;;;;5087944;28;20525;-63
2022/06/26 09:37:03;;;;;;;5.10;2.75;;;;;;;;;;5065022;28;20036;-63
2022/06/26 09:39:32;;;;;;;5.72;2.67;;;;;;;;;;5088108;28;20509;-67
2022/06/26 09:42:21;;;;;;;6.80;3.00;;;;;;;;;;5084190;28;20047;-66
2022/06/26 09:44:52;;;;;;;4.40;2.72;;;;;;;;;;5084903;28;20048;-67
2022/06/26 09:47:24;;;;;;;5.93;3.70;;;;;;;;;;5089474;28;20038;-66
2022/06/26 09:49:51;;;;;;;5.13;2.78;;;;;;;;;;5086517;28;20036;-66
2022/06/26 09:52:18;;;;;;;4.13;2.67;;;;;;;;;;5087667;28;20505;-66
2022/06/26 09:54:46;;;;;;;5.60;2.70;;;;;;;;;;5087512;28;20116;-67
2022/06/26 09:57:13;;;;;;;4.30;2.13;;;;;;;;;;5080861;28;20510;-66
2022/06/26 09:59:40;;;;;;;5.00;2.60;;;;;;;;;;5084257;28;20047;-66
2022/06/26 10:07:40;;;;;;;3.80;2.33;;;;;;;;;;5091517;28;20557;-67
2022/06/26 10:10:06;;;;;;;6.10;2.50;;;;;;;;;;5085221;28;20070;-66
2022/06/26 10:12:33;;;;;;;4.43;2.30;;;;;;;;;;5083159;28;20526;-67
2022/06/26 10:15:00;;;;;;;6.40;2.92;;;;;;;;;;5083311;28;20039;-67
2022/06/26 10:17:34;;;;;;;5.53;2.83;;;;;;;;;;5088368;28;20434;-66
2022/06/26 10:20:06;;;;;;;5.25;2.92;;;;;;;;;;5084958;28;20036;-67
2022/06/26 10:22:39;;;;;;;4.93;2.70;;;;;;;;;;5085791;27;20266;-67
2022/06/26 10:25:06;;;;;;;4.15;2.50;;;;;;;;;;5084323;28;20040;-66
2022/06/26 10:27:33;;;;;;;4.38;2.50;;;;;;;;;;5088373;28;20042;-67
2022/06/26 10:30:16;;;;;;;6.03;2.83;;;;;;;;;;5084149;28;20044;-66
2022/06/26 10:32:43;;;;;;;5.32;3.42;;;;;;;;;;5089518;28;20035;-69
2022/06/26 10:35:10;;;;;;;5.53;2.85;;;;;;;;;;5080944;28;20506;-68
2022/06/26 10:37:47;;;;;;;8.43;3.90;;;;;;;;;;5088231;28;20044;-67
2022/06/26 10:42:52;;;;;;;7.70;3.05;;;;;;;;;;5089377;28;20044;-73
2022/06/26 10:43:01;;;;;;;4.57;3.05;;;;;;;;;;5087346;28;20052;-76
2022/06/26 10:45:31;;;;;;;8.57;3.33;;;;;;;;;;5083249;28;20097;-77
2022/06/26 10:47:59;;;;;;;4.70;3.10;;;;;;;;;;5090592;28;20036;-76
2022/06/26 10:50:31;;;;;;;5.68;3.72;;;;;;;;;;5089349;28;20450;-77
2022/06/26 10:53:15;;;;;;;5.30;4.38;;;;;;;;;;5081863;28;20082;-76
2022/06/26 10:55:42;;;;;;;4.45;3.83;;;;;;;;;;5089806;28;20486;-76
2022/06/26 10:58:09;;;;;;;5.00;3.58;;;;;;;;;;5095294;28;20046;-76
2022/06/26 11:00:35;;;;;;;5.88;4.20;;;;;;;;;;5077849;28;20055;-76
2022/06/26 11:03:12;;;;;;;6.18;3.80;;;;;;;;;;5083108;28;20166;-76
2022/06/26 11:05:38;;;;;;;8.10;4.95;;;;;;;;;;5085008;28;20060;-77
2022/06/26 11:08:05;;;;;;;6.45;4.53;;;;;;;;;;5091475;28;20114;-76
2022/06/26 11:10:33;;;;;;;7.18;4.75;;;;;;;;;;5101028;28;20412;-76
2022/06/26 11:13:00;;;;;;;4.65;4.13;;;;;;;;;;5085099;28;20051;-77
2022/06/26 11:15:34;;;;;;;5.95;5.30;;;;;;;;;;5083121;28;20040;-77
2022/06/26 11:18:01;;;;;;;5.53;4.30;;;;;;;;;;5084183;28;20043;-76
2022/06/26 11:20:49;;;;;;;9.57;4.75;;;;;;;;;;5085787;28;20086;-76
2022/06/26 11:23:19;;;;;;;5.25;4.28;;;;;;;;;;5086452;28;20412;-76
2022/06/26 11:25:46;;;;;;;9.85;4.78;;;;;;;;;;5092519;28;20025;-76
2022/06/26 11:28:12;;;;;;;5.65;4.82;;;;;;;;;;5091148;28;20076;-76
2022/06/26 11:30:39;;;;;;;7.90;5.22;;;;;;;;;;5084463;28;20044;-76
2022/06/26 11:33:06;;;;;;;8.38;4.60;;;;;;;;;;5080005;28;20044;-76
2022/06/26 11:35:36;;;;;;;8.50;5.10;;;;;;;;;;5084530;28;20071;-76
2022/06/26 11:38:10;;;;;;;8.13;4.78;;;;;;;;;;5091660;28;20070;-76
2022/06/26 11:40:36;;;;;;;11.95;4.45;;;;;;;;;;5080492;28;20393;-77
2022/06/26 11:43:02;;;;;;;9.18;4.82;;;;;;;;;;5079882;28;20090;-76
2022/06/26 11:45:31;;;;;;;4.93;4.32;;;;;;;;;;5093780;28;20038;-77
2022/06/26 11:47:58;;;;;;;6.45;4.80;;;;;;;;;;5092992;28;20042;-76
2022/06/26 11:50:29;;;;;;;5.93;4.90;;;;;;;;;;5087193;28;20097;-76
2022/06/26 11:52:57;;;;;;;8.03;6.17;;;;;;;;;;5083718;28;20264;-76
2022/06/26 11:55:23;;;;;;;8.05;6.60;;;;;;;;;;5087242;28;20048;-78
2022/06/26 11:57:49;;;;;;;8.00;7.15;;;;;;;;;;5082307;28;20112;-76
2022/06/26 12:00:19;;;;;;;14.82;6.82;;;;;;;;;;5091408;28;20404;-76
2022/06/26 12:02:48;;;;;;;10.85;6.60;;;;;;;;;;5082185;28;20205;-77
2022/06/26 12:05:19;;;;;;;9.32;5.57;;;;;;;;;;5078373;28;20075;-77
2022/06/26 12:07:47;;;;;;;7.50;6.05;;;;;;;;;;5079714;28;20052;-76
2022/06/26 12:10:13;;;;;;;11.57;6.47;;;;;;;;;;5088416;28;20036;-76
2022/06/26 12:12:49;;;;;;;6.97;5.07;;;;;;;;;;5095298;28;20398;-76
2022/06/26 12:15:16;;;;;;;5.82;4.55;;;;;;;;;;5092223;28;20044;-76
2022/06/26 12:17:42;;;;;;;5.53;3.70;;;;;;;;;;5081854;28;20394;-76
2022/06/26 12:20:10;;;;;;;5.53;4.15;;;;;;;;;;5078106;28;20101;-76
2022/06/26 12:22:36;;;;;;;5.18;3.70;;;;;;;;;;5090529;28;20076;-76
2022/06/26 12:25:04;;;;;;;9.75;3.40;;;;;;;;;;5084711;28;20063;-76
2022/06/26 12:27:36;;;;;;;3.78;2.97;;;;;;;;;;5097976;28;20261;-76
2022/06/26 12:30:03;;;;;;;3.75;2.67;;;;;;;;;;5096083;28;20040;-76
2022/06/26 12:32:29;;;;;;;9.30;3.25;;;;;;;;;;5094169;28;20043;-77
2022/06/26 12:34:56;;;;;;;5.13;3.17;;;;;;;;;;5087881;28;20043;-76
2022/06/26 12:37:22;;;;;;;5.63;4.03;;;;;;;;;;5089750;28;20039;-76
2022/06/26 12:39:49;;;;;;;4.43;3.35;;;;;;;;;;5090464;28;20044;-76
2022/06/26 12:42:15;;;;;;;4.82;3.65;;;;;;;;;;5090280;28;20481;-77
2022/06/26 12:44:41;;;;;;;12.05;3.13;;;;;;;;;;5087363;28;20481;-77
2022/06/26 12:47:08;;;;;;;8.35;4.50;;;;;;;;;;5091052;28;20086;-74
2022/06/26 12:49:34;;;;;;;5.78;3.47;;;;;;;;;;5086683;28;20032;-76
2022/06/26 12:52:00;;;;;;;6.60;4.20;;;;;;;;;;5086523;28;20079;-76
2022/06/26 12:54:26;;;;;;;5.00;4.28;;;;;;;;;;5089154;28;20039;-76
2022/06/26 12:56:52;;;;;;;6.47;3.65;;;;;;;;;;5092811;28;20036;-76
2022/06/26 12:59:18;;;;;;;7.05;4.47;;;;;;;;;;5091856;28;20040;-76
2022/06/26 13:01:44;;;;;;;5.43;3.10;;;;;;;;;;5090097;28;20052;-76
2022/06/26 13:04:11;;;;;;;5.75;4.05;;;;;;;;;;5089910;28;20035;-76
2022/06/26 13:06:37;;;;;;;7.47;4.25;;;;;;;;;;5082454;28;20036;-76
2022/06/26 13:09:03;;;;;;;6.90;4.00;;;;;;;;;;5086801;28;20490;-76
2022/06/26 13:11:31;;;;;;;7.03;3.72;;;;;;;;;;5089764;28;20082;-76
2022/06/26 13:13:57;;;;;;;4.20;3.28;;;;;;;;;;5088263;28;20040;-76
2022/06/26 13:16:23;;;;;;;6.20;3.60;;;;;;;;;;5090765;28;21923;-76
2022/06/26 13:18:49;;;;;;;6.63;3.70;;;;;;;;;;5093862;28;20048;-76
2022/06/26 13:21:16;;;;;;;5.78;3.20;;;;;;;;;;5088005;28;20046;-76
2022/06/26 13:23:42;;;;;;;6.75;3.53;;;;;;;;;;5090737;28;20040;-76
2022/06/26 13:26:08;;;;;;;6.63;3.92;;;;;;;;;;5081293;28;20043;-76
2022/06/26 13:28:35;;;;;;;6.32;4.20;;;;;;;;;;5088039;28;20041;-76
2022/06/26 13:31:02;;;;;;;8.10;4.30;;;;;;;;;;5087303;28;20054;-75
2022/06/26 13:33:28;;;;;;;4.78;3.58;;;;;;;;;;5092310;28;20039;-76
2022/06/26 13:35:54;;;;;;;6.68;3.78;;;;;;;;;;5087445;28;20086;-76
2022/06/26 13:38:20;;;;;;;6.55;3.75;;;;;;;;;;5090068;28;20471;-75
2022/06/26 13:40:46;;;;;;;3.85;3.17;;;;;;;;;;5089109;28;20048;-76
2022/06/26 13:43:12;;;;;;;4.97;3.33;;;;;;;;;;5091575;28;20040;-76
2022/06/26 13:45:39;;;;;;;6.22;3.88;;;;;;;;;;5087064;28;20042;-76
2022/06/26 13:48:05;;;;;;;3.85;3.42;;;;;;;;;;5081215;28;20032;-77
2022/06/26 13:50:31;;;;;;;4.90;4.30;;;;;;;;;;5087546;28;20047;-76
2022/06/26 13:52:57;;;;;;;8.50;4.30;;;;;;;;;;5090009;28;20486;-76
2022/06/26 13:55:24;;;;;;;5.93;4.88;;;;;;;;;;5088557;28;20039;-76
2022/06/26 13:57:50;;;;;;;6.53;4.82;;;;;;;;;;5091140;28;20409;-74
2022/06/26 14:00:16;;;;;;;6.90;5.70;;;;;;;;;;5087504;28;20501;-76
2022/06/26 14:02:42;;;;;;;7.22;5.53;;;;;;;;;;5087043;28;20043;-76
2022/06/26 14:05:08;;;;;;;10.90;5.80;;;;;;;;;;5087756;28;20032;-76
2022/06/26 14:07:34;;;;;;;10.30;6.65;;;;;;;;;;5088849;28;20032;-76
2022/06/26 14:10:01;;;;;;;8.65;6.80;;;;;;;;;;5089267;28;20028;-76
2022/06/26 14:12:27;;;;;;;10.00;6.97;;;;;;;;;;5090372;28;20028;-76
2022/06/26 14:14:55;;;;;;;7.97;6.30;;;;;;;;;;5084228;28;20458;-76
2022/06/26 14:17:21;;;;;;;8.40;6.75;;;;;;;;;;5086468;28;20056;-76
2022/06/26 14:19:47;;;;;;;9.85;6.80;;;;;;;;;;5095716;28;20039;-76
2022/06/26 14:27:43;;;;;;;7.22;6.10;;;;;;;;;;5079917;28;20293;-76
2022/06/26 14:30:10;;;;;;;6.95;5.78;;;;;;;;;;5085371;28;20528;-76
2022/06/26 14:32:36;;;;;;;6.80;6.10;;;;;;;;;;5086306;28;20448;-76
2022/06/26 14:35:03;;;;;;;5.63;4.00;;;;;;;;;;5088476;28;20070;-74
2022/06/26 14:37:29;;;;;;;6.72;4.00;;;;;;;;;;5088890;28;20549;-74
2022/06/26 14:39:55;;;;;;;6.47;4.38;;;;;;;;;;5083738;28;20180;-74
2022/06/26 14:42:21;;;;;;;5.55;3.40;;;;;;;;;;5080224;28;20078;-74
2022/06/26 14:44:47;;;;;;;5.28;3.63;;;;;;;;;;5081408;28;20647;-75
2022/06/26 14:47:14;;;;;;;4.78;3.15;;;;;;;;;;5083256;28;20032;-73
2022/06/26 14:49:40;;;;;;;5.55;3.45;;;;;;;;;;5079276;28;20344;-72
2022/06/26 14:52:07;;;;;;;3.75;2.25;;;;;;;;;;5081887;28;20074;-73